Mount Lofty, Australia
Current Conditions -  °F | °C
As of 2:00 PM on Wednesday 28 Jan 2015 (Local Time) from YPAD Reporting Station
Few Clouds Few Clouds  
Wind Chill: 77°   Ceiling: Unl
Heat Index: 78°   Visibility: 6mi
Dew Point: 43°   Wind: 17mph
Humidity: 29%   Direction: 140°SE
Pressure: 30"   Gusts: 29mph
Location:  34.97°S, 138.7°E
Report Text: YPAD 280400Z 14015G25KT 9999 FEW047 25/06 Q1016 NOSIG
Loading
Personal Weather Stations






























Interactive Weather Map New forecast layout! Learn more

10-Day Weather Forecast

Advertisements
Track Severe Weather on mobile